Terminal Aerodrome Forecast
Issued by NWS Melbourne, FL

Home | Current Version | Previous Version | Text Only | Print | Product List | Glossary On
Versions: 1 2 3 4 5 6 7 8 9 10 11 12 13 14 15 16 17 18 19 20 21
000
FTUS42 KMLB 271819 AAA
TAFDAB
TAF AMD
KDAB 271819Z 2718/2818 24014KT P6SM VCTS SCT035CB BKN050
      TEMPO 2718/2720 VRB20G30KT 3SM TSRA BKN025CB
     FM280000 27013KT P6SM VCSH BKN035
     FM280300 29011KT P6SM BKN250=

USA.gov is the U.S. government's official web portal to all federal, state and local government web resources and services.